Time,TemperatureF,DewpointF,PressureIn,WindDirection,WindDirectionDegrees,WindSpeedMPH,WindSpeedGustMPH,Humidity,HourlyPrecipIn,Conditions,Clouds,dailyrainin,SoftwareType,DateUTC
2013-05-08 00:00:00,53.1,51.7,30.07,WNW,288,0.0,0.0,95,0.00,,BKN200,0.00,VWS V14.01,2013-05-08 04:00:00,
2013-05-08 00:02:00,53.1,51.7,30.07,WNW,288,0.0,0.0,95,0.00,,BKN150,0.00,VWS V14.01,2013-05-08 04:02:00,
2013-05-08 00:03:00,53.1,51.7,30.07,WNW,288,0.0,0.0,95,0.00,,BKN150,0.00,VWS V14.01,2013-05-08 04:03:00,
2013-05-08 00:06:00,53.1,51.7,30.07,WNW,288,0.0,0.0,95,0.00,,BKN150,0.00,VWS V14.01,2013-05-08 04:06:00,
2013-05-08 00:08:00,53.1,51.7,30.07,WNW,288,0.0,0.0,95,0.00,,BKN150,0.00,VWS V14.01,2013-05-08 04:08:00,
2013-05-08 00:12:00,53.1,51.7,30.07,WNW,288,0.0,0.0,95,0.00,,BKN150,0.00,VWS V14.01,2013-05-08 04:12:00,
2013-05-08 00:18:00,52.9,51.8,30.07,WNW,288,0.0,0.0,96,0.00,,BKN150,0.00,VWS V14.01,2013-05-08 04:18:00,
2013-05-08 00:24:00,52.9,51.8,30.07,WNW,288,0.0,0.0,96,0.00,,BKN150,0.00,VWS V14.01,2013-05-08 04:24:00,
2013-05-08 00:30:00,52.8,51.7,30.07,WNW,288,0.0,0.0,96,0.00,,BKN150,0.00,VWS V14.01,2013-05-08 04:30:00,
2013-05-08 00:36:00,52.6,51.5,30.07,WNW,288,0.0,0.0,96,0.00,,BKN150,0.00,VWS V14.01,2013-05-08 04:36:00,
2013-05-08 00:42:00,52.5,51.4,30.07,WNW,288,0.0,0.0,96,0.00,,BKN150,0.00,VWS V14.01,2013-05-08 04:42:00,
2013-05-08 00:48:00,52.3,51.2,30.07,WNW,288,0.0,0.0,96,0.00,,BKN150,0.00,VWS V14.01,2013-05-08 04:48:00,
2013-05-08 00:54:00,52.3,51.2,30.07,WNW,288,0.0,0.0,96,0.00,,BKN150,0.00,VWS V14.01,2013-05-08 04:54:00,
2013-05-08 01:00:00,52.0,50.9,30.07,WNW,288,0.0,0.0,96,0.00,,BKN150,0.00,VWS V14.01,2013-05-08 05:00:00,
2013-05-08 01:06:00,51.9,50.8,30.07,WNW,288,0.0,0.0,96,0.00,,BKN100,0.00,VWS V14.01,2013-05-08 05:06:00,
2013-05-08 01:12:00,51.9,51.1,30.07,WNW,288,0.0,0.0,97,0.00,,BKN100,0.00,VWS V14.01,2013-05-08 05:12:00,
2013-05-08 01:18:00,51.9,51.1,30.06,WNW,288,0.0,0.0,97,0.00,,BKN100,0.00,VWS V14.01,2013-05-08 05:18:00,
2013-05-08 01:24:00,51.9,51.1,30.06,WNW,288,0.0,0.0,97,0.00,,BKN100,0.00,VWS V14.01,2013-05-08 05:24:00,
2013-05-08 01:30:00,52.0,51.2,30.06,WNW,288,0.0,0.0,97,0.00,,BKN100,0.00,VWS V14.01,2013-05-08 05:30:00,
2013-05-08 01:35:00,52.2,51.4,30.06,WNW,288,0.0,0.0,97,0.00,,BKN100,0.00,VWS V14.01,2013-05-08 05:35:00,
2013-05-08 01:40:00,52.3,51.5,30.06,WNW,288,0.0,0.0,97,0.00,,BKN100,0.00,VWS V14.01,2013-05-08 05:40:00,
2013-05-08 01:46:00,52.3,51.5,30.06,WNW,288,0.0,0.0,97,0.00,,BKN100,0.00,VWS V14.01,2013-05-08 05:46:00,
2013-05-08 01:52:00,52.3,51.5,30.06,WNW,288,0.0,0.0,97,0.00,,BKN100,0.00,VWS V14.01,2013-05-08 05:52:00,
2013-05-08 01:58:00,52.5,51.7,30.06,WNW,288,0.0,0.0,97,0.00,,BKN100,0.00,VWS V14.01,2013-05-08 05:58:00,
2013-05-08 02:04:00,52.5,51.7,30.05,WNW,288,0.0,0.0,97,0.00,,BKN150,0.00,VWS V14.01,2013-05-08 06:04:00,
2013-05-08 02:10:00,52.5,51.7,30.05,WNW,288,0.0,0.0,97,0.00,,BKN150,0.00,VWS V14.01,2013-05-08 06:10:00,
2013-05-08 02:16:00,52.5,51.7,30.04,WNW,288,0.0,0.0,97,0.00,,BKN150,0.00,VWS V14.01,2013-05-08 06:16:00,
2013-05-08 02:22:00,52.3,51.5,30.04,WNW,288,0.0,0.0,97,0.00,,BKN150,0.00,VWS V14.01,2013-05-08 06:22:00,
2013-05-08 02:28:00,52.2,51.4,30.04,WNW,288,0.0,0.0,97,0.00,,BKN150,0.00,VWS V14.01,2013-05-08 06:28:00,
2013-05-08 02:34:00,52.0,51.2,30.04,WNW,288,0.0,0.0,97,0.00,,BKN150,0.00,VWS V14.01,2013-05-08 06:34:00,
2013-05-08 02:40:00,52.0,51.5,30.04,WNW,288,0.0,0.0,98,0.00,,BKN150,0.00,VWS V14.01,2013-05-08 06:40:00,
2013-05-08 02:46:00,52.0,51.5,30.04,WNW,288,0.0,0.0,98,0.00,,BKN150,0.00,VWS V14.01,2013-05-08 06:46:00,
2013-05-08 02:52:00,52.0,51.5,30.04,WNW,288,0.0,0.0,98,0.00,,BKN150,0.00,VWS V14.01,2013-05-08 06:52:00,
2013-05-08 02:58:00,52.0,51.5,30.04,WNW,288,0.0,0.0,98,0.00,,BKN150,0.00,VWS V14.01,2013-05-08 06:58:00,
2013-05-08 03:04:00,52.0,51.5,30.04,WNW,288,0.0,0.0,98,0.00,,BKN150,0.00,VWS V14.01,2013-05-08 07:04:00,
2013-05-08 03:10:00,52.0,51.5,30.04,WNW,288,0.0,0.0,98,0.00,,BKN150,0.00,VWS V14.01,2013-05-08 07:10:00,
2013-05-08 03:16:00,52.0,51.5,30.04,WNW,288,0.0,0.0,98,0.00,,BKN150,0.00,VWS V14.01,2013-05-08 07:16:00,
2013-05-08 03:22:00,52.0,51.5,30.04,WNW,288,0.0,0.0,98,0.00,,BKN150,0.00,VWS V14.01,2013-05-08 07:22:00,
2013-05-08 03:28:00,52.0,51.5,30.04,WNW,288,0.0,0.0,98,0.00,,BKN150,0.00,VWS V14.01,2013-05-08 07:28:00,
2013-05-08 03:34:00,52.0,51.5,30.04,WNW,288,0.0,0.0,98,0.00,,BKN150,0.00,VWS V14.01,2013-05-08 07:34:00,
2013-05-08 03:40:00,52.2,51.7,30.04,WNW,288,0.0,0.0,98,0.00,,BKN150,0.00,VWS V14.01,2013-05-08 07:40:00,
2013-05-08 03:46:00,52.2,51.7,30.04,WNW,288,0.0,0.0,98,0.00,,BKN150,0.00,VWS V14.01,2013-05-08 07:46:00,
2013-05-08 03:52:00,52.2,51.7,30.04,WNW,288,0.0,0.0,98,0.00,,BKN150,0.00,VWS V14.01,2013-05-08 07:52:00,
2013-05-08 03:58:00,52.2,51.7,30.04,WNW,288,0.0,0.0,98,0.00,,BKN150,0.00,VWS V14.01,2013-05-08 07:58:00,
2013-05-08 04:04:00,52.2,51.7,30.04,WNW,288,0.0,0.0,98,0.00,,-RA,0.00,VWS V14.01,2013-05-08 08:04:00,
2013-05-08 04:10:00,52.0,51.5,30.04,WNW,288,0.0,0.0,98,0.00,,-RA,0.00,VWS V14.01,2013-05-08 08:10:00,
2013-05-08 04:16:00,52.0,51.5,30.04,WNW,288,0.0,0.0,98,0.00,,-RA,0.00,VWS V14.01,2013-05-08 08:16:00,
2013-05-08 04:22:00,52.2,51.7,30.04,WNW,288,0.0,0.0,98,0.00,,-RA,0.00,VWS V14.01,2013-05-08 08:22:00,
2013-05-08 04:28:00,52.2,51.7,30.04,WNW,288,0.0,0.0,98,0.00,,-RA,0.00,VWS V14.01,2013-05-08 08:28:00,
2013-05-08 04:34:00,52.3,51.8,30.04,WNW,288,0.0,0.0,98,0.00,,-RA,0.00,VWS V14.01,2013-05-08 08:34:00,
2013-05-08 04:40:00,52.3,51.8,30.04,WNW,288,0.0,0.0,98,0.00,,-RA,0.00,VWS V14.01,2013-05-08 08:40:00,
2013-05-08 04:46:00,52.5,52.0,30.05,WNW,288,0.0,0.0,98,0.00,,-RA,0.00,VWS V14.01,2013-05-08 08:46:00,
2013-05-08 04:52:00,52.5,52.0,30.05,WNW,288,0.0,0.0,98,0.00,,-RA,0.00,VWS V14.01,2013-05-08 08:52:00,
2013-05-08 04:59:00,52.6,52.3,30.05,WNW,288,0.0,0.0,99,0.00,,-RA,0.00,VWS V14.01,2013-05-08 08:59:00,
2013-05-08 05:05:00,52.8,52.5,30.05,WNW,288,0.0,0.0,99,0.00,,-RA,0.00,VWS V14.01,2013-05-08 09:05:00,
2013-05-08 05:10:00,52.8,52.5,30.05,WNW,288,0.0,0.0,99,0.00,,-RA,0.00,VWS V14.01,2013-05-08 09:10:00,
2013-05-08 05:15:00,52.9,52.6,30.05,WNW,288,0.0,0.0,99,0.00,,-RA,0.00,VWS V14.01,2013-05-08 09:15:00,
2013-05-08 05:21:00,52.9,52.6,30.05,WNW,288,0.0,0.0,99,0.00,,-RA,0.00,VWS V14.01,2013-05-08 09:21:00,
2013-05-08 05:27:00,52.9,52.6,30.05,WNW,288,0.0,0.0,99,0.00,,-RA,0.00,VWS V14.01,2013-05-08 09:27:00,
2013-05-08 05:33:00,52.9,52.6,30.05,WNW,288,0.0,0.0,99,0.00,,-RA,0.00,VWS V14.01,2013-05-08 09:33:00,
2013-05-08 05:39:00,52.9,52.6,30.05,WNW,288,0.0,0.0,99,0.00,,-RA,0.00,VWS V14.01,2013-05-08 09:39:00,
2013-05-08 05:45:00,52.9,52.6,30.05,WNW,288,0.0,0.0,99,0.00,,-RA,0.00,VWS V14.01,2013-05-08 09:45:00,
2013-05-08 05:51:00,52.9,52.6,30.05,WNW,288,0.0,0.0,99,0.00,,-RA,0.00,VWS V14.01,2013-05-08 09:51:00,
2013-05-08 05:57:00,53.1,52.8,30.05,WNW,288,0.0,0.0,99,0.00,,-RA,0.00,VWS V14.01,2013-05-08 09:57:00,
2013-05-08 06:03:00,53.1,52.8,30.05,WNW,288,0.0,0.0,99,0.00,,BKN080,0.00,VWS V14.01,2013-05-08 10:03:00,
2013-05-08 06:09:00,53.2,52.9,30.05,WNW,288,0.0,0.0,99,0.00,,BKN080,0.00,VWS V14.01,2013-05-08 10:09:00,
2013-05-08 06:15:00,53.2,52.9,30.06,WNW,288,0.0,0.0,99,0.00,,BKN080,0.00,VWS V14.01,2013-05-08 10:15:00,
2013-05-08 06:21:00,53.3,53.0,30.06,WNW,288,0.0,0.0,99,0.00,,BKN080,0.00,VWS V14.01,2013-05-08 10:21:00,
2013-05-08 06:27:00,53.3,53.0,30.06,WNW,288,0.0,0.0,99,0.00,,BKN080,0.00,VWS V14.01,2013-05-08 10:27:00,
2013-05-08 06:33:00,53.5,53.5,30.07,WNW,288,0.0,0.0,100,0.00,,BKN080,0.00,VWS V14.01,2013-05-08 10:33:00,
2013-05-08 06:40:00,53.5,53.5,30.07,WNW,288,0.0,0.0,100,0.00,,BKN080,0.00,VWS V14.01,2013-05-08 10:40:00,
2013-05-08 06:46:00,53.5,53.5,30.08,WNW,288,0.0,0.0,100,0.00,,BKN080,0.00,VWS V14.01,2013-05-08 10:46:00,
2013-05-08 06:52:00,53.6,53.6,30.08,WNW,288,0.0,0.0,100,0.00,,BKN080,0.00,VWS V14.01,2013-05-08 10:52:00,
2013-05-08 06:58:00,53.6,53.6,30.08,WNW,288,0.0,0.0,100,0.00,,BKN080,0.00,VWS V14.01,2013-05-08 10:58:00,
2013-05-08 07:04:00,53.6,53.6,30.08,WNW,288,0.0,0.0,100,0.00,,-RA,0.00,VWS V14.01,2013-05-08 11:04:00,
2013-05-08 07:10:00,53.8,53.8,30.08,WNW,288,0.0,0.0,100,0.00,,-RA,0.00,VWS V14.01,2013-05-08 11:10:00,
2013-05-08 07:16:00,53.8,53.8,30.09,WNW,288,0.0,0.0,100,0.00,,-RA,0.00,VWS V14.01,2013-05-08 11:16:00,
2013-05-08 07:22:00,53.9,53.9,30.09,WNW,288,0.0,0.0,100,0.00,,-RA,0.00,VWS V14.01,2013-05-08 11:22:00,
2013-05-08 07:28:00,53.9,53.9,30.09,WNW,288,0.0,0.0,100,0.00,,-RA,0.00,VWS V14.01,2013-05-08 11:28:00,
2013-05-08 07:34:00,54.1,54.1,30.09,WNW,288,0.0,0.0,100,0.00,,-RA,0.00,VWS V14.01,2013-05-08 11:34:00,
2013-05-08 07:40:00,54.1,54.1,30.09,WNW,288,0.0,0.0,100,0.00,,-RA,0.00,VWS V14.01,2013-05-08 11:40:00,
2013-05-08 07:46:00,54.2,54.2,30.09,WNW,288,0.0,0.0,100,0.00,,-RA,0.00,VWS V14.01,2013-05-08 11:46:00,
2013-05-08 07:52:00,54.2,54.2,30.09,WNW,288,0.0,0.0,100,0.00,,-RA,0.00,VWS V14.01,2013-05-08 11:52:00,
2013-05-08 07:58:00,54.4,54.4,30.09,WNW,288,0.0,0.0,100,0.00,,-RA,0.00,VWS V14.01,2013-05-08 11:58:00,
2013-05-08 08:04:00,54.7,54.7,30.09,WNW,288,0.0,0.0,100,0.01,,BKN110,0.01,VWS V14.01,2013-05-08 12:04:00,
2013-05-08 08:10:00,54.8,54.8,30.09,WNW,288,0.0,0.0,100,0.01,,BKN110,0.01,VWS V14.01,2013-05-08 12:10:00,
2013-05-08 08:16:00,55.0,55.0,30.10,WNW,288,0.0,0.0,100,0.01,,BKN110,0.01,VWS V14.01,2013-05-08 12:16:00,
2013-05-08 08:22:00,55.0,55.0,30.10,WNW,288,0.0,0.0,100,0.01,,BKN110,0.01,VWS V14.01,2013-05-08 12:22:00,
2013-05-08 08:28:00,55.3,55.3,30.10,WNW,288,0.0,0.0,100,0.01,,BKN110,0.01,VWS V14.01,2013-05-08 12:28:00,
2013-05-08 08:34:00,55.4,55.4,30.10,WNW,288,0.0,0.0,100,0.01,,BKN110,0.01,VWS V14.01,2013-05-08 12:34:00,
2013-05-08 08:40:00,55.6,55.6,30.10,WNW,288,0.0,0.0,100,0.01,,BKN110,0.01,VWS V14.01,2013-05-08 12:40:00,
2013-05-08 08:46:00,55.9,55.9,30.10,WNW,288,0.0,0.0,100,0.01,,BKN110,0.01,VWS V14.01,2013-05-08 12:46:00,
2013-05-08 08:52:00,56.0,56.0,30.10,WNW,288,0.0,0.0,100,0.01,,BKN110,0.01,VWS V14.01,2013-05-08 12:52:00,
2013-05-08 08:58:00,56.5,56.5,30.10,WNW,288,0.0,0.0,100,0.01,,BKN110,0.01,VWS V14.01,2013-05-08 12:58:00,
2013-05-08 09:04:00,56.6,56.6,30.10,WNW,288,0.0,0.0,100,0.01,,BKN200,0.01,VWS V14.01,2013-05-08 13:04:00,
2013-05-08 09:10:00,57.0,57.0,30.10,WNW,288,0.0,0.0,100,0.01,,BKN200,0.01,VWS V14.01,2013-05-08 13:10:00,
2013-05-08 09:16:00,57.0,57.0,30.11,WNW,288,0.0,0.0,100,0.00,,BKN200,0.01,VWS V14.01,2013-05-08 13:16:00,
2013-05-08 09:22:00,57.0,57.0,30.11,WNW,288,0.0,0.0,100,0.00,,BKN200,0.01,VWS V14.01,2013-05-08 13:22:00,
2013-05-08 09:28:00,57.3,57.3,30.11,WNW,288,0.0,0.0,100,0.00,,BKN200,0.01,VWS V14.01,2013-05-08 13:28:00,
2013-05-08 09:34:00,57.3,57.0,30.11,WNW,288,0.0,0.0,99,0.00,,BKN200,0.01,VWS V14.01,2013-05-08 13:34:00,
2013-05-08 09:40:00,57.3,56.7,30.11,WNW,288,0.0,0.0,98,0.00,,BKN200,0.01,VWS V14.01,2013-05-08 13:40:00,
2013-05-08 09:46:00,57.5,56.9,30.12,WNW,288,0.0,0.0,98,0.00,,BKN200,0.01,VWS V14.01,2013-05-08 13:46:00,
2013-05-08 09:53:00,57.6,56.8,30.12,WNW,288,0.0,0.0,97,0.00,,BKN200,0.01,VWS V14.01,2013-05-08 13:53:00,
2013-05-08 09:59:00,57.8,57.0,30.12,WNW,288,0.0,0.0,97,0.00,,BKN200,0.01,VWS V14.01,2013-05-08 13:59:00,
2013-05-08 10:05:00,58.0,57.2,30.12,WNW,288,0.0,0.0,97,0.00,,OVC200,0.01,VWS V14.01,2013-05-08 14:05:00,
2013-05-08 10:10:00,58.3,57.2,30.12,WNW,288,0.0,0.0,96,0.00,,OVC200,0.01,VWS V14.01,2013-05-08 14:10:00,
2013-05-08 10:15:00,58.3,56.9,30.12,WNW,288,0.0,0.0,95,0.00,,OVC200,0.01,VWS V14.01,2013-05-08 14:15:00,
2013-05-08 10:21:00,58.4,56.7,30.12,WNW,288,0.0,0.0,94,0.00,,OVC200,0.01,VWS V14.01,2013-05-08 14:21:00,
2013-05-08 10:27:00,58.6,56.6,30.12,WNW,288,0.0,0.0,93,0.00,,OVC200,0.01,VWS V14.01,2013-05-08 14:27:00,
2013-05-08 10:33:00,58.9,56.9,30.12,WNW,288,0.0,0.0,93,0.00,,OVC200,0.01,VWS V14.01,2013-05-08 14:33:00,
2013-05-08 10:39:00,59.0,57.0,30.12,WNW,288,0.0,0.0,93,0.00,,OVC200,0.01,VWS V14.01,2013-05-08 14:39:00,
2013-05-08 10:45:00,59.2,56.9,30.12,WNW,288,0.0,0.0,92,0.00,,OVC200,0.01,VWS V14.01,2013-05-08 14:45:00,
2013-05-08 10:51:00,59.3,57.0,30.12,WNW,288,0.0,0.0,92,0.00,,OVC200,0.01,VWS V14.01,2013-05-08 14:51:00,
2013-05-08 10:57:00,59.3,56.7,30.12,WNW,288,0.0,0.0,91,0.00,,OVC200,0.01,VWS V14.01,2013-05-08 14:57:00,
2013-05-08 11:03:00,59.2,56.0,30.13,WNW,288,0.0,0.0,89,0.00,,BKN200,0.01,VWS V14.01,2013-05-08 15:03:00,
2013-05-08 11:09:00,59.2,56.0,30.13,WNW,288,0.0,0.0,89,0.00,,BKN200,0.01,VWS V14.01,2013-05-08 15:09:00,
2013-05-08 11:15:00,59.0,55.8,30.13,WNW,288,0.0,0.0,89,0.00,,BKN200,0.01,VWS V14.01,2013-05-08 15:15:00,
2013-05-08 11:21:00,59.0,56.1,30.13,WNW,288,0.0,0.0,90,0.00,,BKN200,0.01,VWS V14.01,2013-05-08 15:21:00,
2013-05-08 11:28:00,59.3,56.7,30.13,WNW,288,0.0,0.0,91,0.00,,BKN200,0.01,VWS V14.01,2013-05-08 15:28:00,
2013-05-08 11:34:00,59.8,57.5,30.13,North,0,0.0,0.0,92,0.00,,BKN200,0.01,VWS V14.01,2013-05-08 15:34:00,
2013-05-08 11:40:00,60.1,57.5,30.13,North,0,0.0,0.0,91,0.00,,BKN200,0.01,VWS V14.01,2013-05-08 15:40:00,
2013-05-08 11:46:00,60.4,56.5,30.13,NW,315,0.0,1.0,87,0.00,,BKN200,0.01,VWS V14.01,2013-05-08 15:46:00,
2013-05-08 11:52:00,60.7,56.5,30.13,NW,315,0.0,0.0,86,0.00,,BKN200,0.01,VWS V14.01,2013-05-08 15:52:00,
2013-05-08 11:58:00,61.2,56.0,30.13,NW,308,0.0,2.0,83,0.00,,BKN200,0.01,VWS V14.01,2013-05-08 15:58:00,
2013-05-08 12:04:00,61.6,56.4,30.12,NW,308,0.0,0.0,83,0.00,,BKN200,0.01,VWS V14.01,2013-05-08 16:04:00,
2013-05-08 12:10:00,62.1,55.9,30.12,NW,308,0.0,1.0,80,0.00,,BKN200,0.01,VWS V14.01,2013-05-08 16:10:00,
2013-05-08 12:16:00,62.1,55.5,30.12,NNW,341,0.0,2.0,79,0.00,,BKN200,0.01,VWS V14.01,2013-05-08 16:16:00,
2013-05-08 12:22:00,62.3,56.4,30.12,NNW,341,0.0,0.0,81,0.00,,BKN200,0.01,VWS V14.01,2013-05-08 16:22:00,
2013-05-08 12:28:00,62.4,56.8,30.12,NNW,341,0.0,0.0,82,0.00,,BKN200,0.01,VWS V14.01,2013-05-08 16:28:00,
2013-05-08 12:34:00,62.6,56.3,30.12,NNW,341,0.0,0.0,80,0.00,,BKN200,0.01,VWS V14.01,2013-05-08 16:34:00,
2013-05-08 12:40:00,63.1,56.8,30.12,NNW,341,0.0,1.0,80,0.00,,BKN200,0.01,VWS V14.01,2013-05-08 16:40:00,
2013-05-08 12:46:00,63.2,56.6,30.10,NNW,335,0.0,2.0,79,0.00,,BKN200,0.01,VWS V14.01,2013-05-08 16:46:00,
2013-05-08 12:52:00,63.5,56.9,30.10,NNW,335,0.0,1.0,79,0.00,,BKN200,0.01,VWS V14.01,2013-05-08 16:52:00,
2013-05-08 12:58:00,63.9,57.3,30.10,NNW,335,0.0,1.0,79,0.00,,BKN200,0.01,VWS V14.01,2013-05-08 16:58:00,
2013-05-08 13:04:00,64.7,56.6,30.10,NNW,344,0.0,2.0,75,0.00,,BKN200,0.01,VWS V14.01,2013-05-08 17:04:00,
2013-05-08 13:10:00,65.6,57.1,30.10,NNW,344,0.0,2.0,74,0.00,,BKN200,0.01,VWS V14.01,2013-05-08 17:10:00,
2013-05-08 13:16:00,66.1,56.0,30.10,WNW,289,0.0,2.0,70,0.00,,BKN200,0.01,VWS V14.01,2013-05-08 17:16:00,
2013-05-08 13:22:00,66.0,57.5,30.10,WNW,282,0.0,0.0,74,0.00,,BKN200,0.01,VWS V14.01,2013-05-08 17:22:00,
2013-05-08 13:28:00,65.8,56.9,30.10,NW,319,0.0,2.0,73,0.00,,BKN200,0.01,VWS V14.01,2013-05-08 17:28:00,
2013-05-08 13:34:00,65.8,56.9,30.09,NW,319,0.0,0.0,73,0.00,,BKN200,0.01,VWS V14.01,2013-05-08 17:34:00,
2013-05-08 13:40:00,66.8,56.7,30.09,WNW,295,0.0,3.0,70,0.00,,BKN200,0.01,VWS V14.01,2013-05-08 17:40:00,
2013-05-08 13:46:00,67.9,56.5,30.08,SW,219,2.0,3.0,67,0.00,,BKN200,0.01,VWS V14.01,2013-05-08 17:46:00,
2013-05-08 13:52:00,67.9,55.7,30.08,North,349,0.0,1.0,65,0.00,,BKN200,0.01,VWS V14.01,2013-05-08 17:52:00,
2013-05-08 13:58:00,68.3,55.2,30.08,SW,224,0.0,3.0,63,0.00,,BKN200,0.01,VWS V14.01,2013-05-08 17:58:00,
2013-05-08 14:04:00,69.1,56.4,30.07,SW,228,0.0,3.0,64,0.00,,BKN200,0.01,VWS V14.01,2013-05-08 18:04:00,
2013-05-08 14:10:00,70.6,56.1,30.07,WNW,301,0.0,3.0,60,0.00,,BKN200,0.01,VWS V14.01,2013-05-08 18:10:00,
2013-05-08 14:16:00,71.6,54.6,30.07,SSW,205,3.0,7.0,55,0.00,,BKN200,0.01,VWS V14.01,2013-05-08 18:16:00,
2013-05-08 14:22:00,71.5,56.0,30.07,NNW,333,0.0,1.0,58,0.00,,BKN200,0.01,VWS V14.01,2013-05-08 18:22:00,
2013-05-08 14:28:00,71.5,56.0,30.07,NW,317,1.0,3.0,58,0.00,,BKN200,0.01,VWS V14.01,2013-05-08 18:28:00,
2013-05-08 14:35:00,70.6,55.6,30.07,NNW,341,0.0,2.0,59,0.00,,BKN200,0.01,VWS V14.01,2013-05-08 18:35:00,
2013-05-08 14:40:00,70.6,56.1,30.07,West,281,0.0,2.0,60,0.00,,BKN200,0.01,VWS V14.01,2013-05-08 18:40:00,
2013-05-08 14:45:00,71.1,57.0,30.07,West,281,1.0,1.0,61,0.00,,BKN200,0.01,VWS V14.01,2013-05-08 18:45:00,
2013-05-08 14:50:00,71.5,56.4,30.07,WNW,287,0.0,2.0,59,0.00,,BKN200,0.01,VWS V14.01,2013-05-08 18:50:00,
2013-05-08 14:56:00,71.3,54.3,30.07,WSW,240,3.0,5.0,55,0.00,,BKN200,0.01,VWS V14.01,2013-05-08 18:56:00,
2013-05-08 15:02:00,70.8,53.8,30.07,SW,227,0.0,1.0,55,0.00,,BKN200,0.01,VWS V14.01,2013-05-08 19:02:00,
2013-05-08 15:08:00,69.9,53.5,30.07,NW,311,0.0,4.0,56,0.00,,BKN200,0.01,VWS V14.01,2013-05-08 19:08:00,
2013-05-08 15:14:00,69.1,53.7,30.07,West,276,0.0,5.0,58,0.00,,BKN200,0.01,VWS V14.01,2013-05-08 19:14:00,
2013-05-08 15:20:00,69.1,54.2,30.06,West,276,0.0,5.0,59,0.00,,BKN200,0.01,VWS V14.01,2013-05-08 19:20:00,
2013-05-08 15:26:00,69.3,55.7,30.06,WSW,250,0.0,3.0,62,0.00,,BKN200,0.01,VWS V14.01,2013-05-08 19:26:00,
2013-05-08 15:32:00,69.4,56.3,30.06,WSW,250,0.0,0.0,63,0.00,,BKN200,0.01,VWS V14.01,2013-05-08 19:32:00,
2013-05-08 15:38:00,69.4,55.4,30.06,WSW,250,0.0,1.0,61,0.00,,BKN200,0.01,VWS V14.01,2013-05-08 19:38:00,
2013-05-08 15:44:00,69.4,55.8,30.06,WSW,250,0.0,1.0,62,0.00,,BKN200,0.01,VWS V14.01,2013-05-08 19:44:00,
2013-05-08 15:50:00,69.4,54.9,30.06,WSW,250,0.0,2.0,60,0.00,,BKN200,0.01,VWS V14.01,2013-05-08 19:50:00,
2013-05-08 15:56:00,69.4,56.3,30.06,WSW,250,0.0,1.0,63,0.00,,BKN200,0.01,VWS V14.01,2013-05-08 19:56:00,
2013-05-08 16:03:00,69.4,58.0,30.06,WSW,250,0.0,1.0,67,0.00,,BKN200,0.01,VWS V14.01,2013-05-08 20:03:00,
2013-05-08 16:09:00,68.8,57.0,30.06,WSW,250,0.0,2.0,66,0.00,,BKN200,0.01,VWS V14.01,2013-05-08 20:09:00,
2013-05-08 16:15:00,68.4,57.0,30.06,WSW,250,0.0,0.0,67,0.00,,BKN200,0.01,VWS V14.01,2013-05-08 20:15:00,
2013-05-08 16:20:00,68.4,56.6,30.06,WSW,248,0.0,2.0,66,0.00,,BKN200,0.01,VWS V14.01,2013-05-08 20:20:00,
2013-05-08 16:25:00,68.3,57.8,30.06,WNW,287,0.0,1.0,69,0.00,,BKN200,0.01,VWS V14.01,2013-05-08 20:25:00,
2013-05-08 16:31:00,68.1,58.7,30.06,WNW,287,0.0,0.0,72,0.00,,BKN200,0.01,VWS V14.01,2013-05-08 20:31:00,
2013-05-08 16:37:00,67.9,58.2,30.06,WNW,287,0.0,0.0,71,0.00,,BKN200,0.01,VWS V14.01,2013-05-08 20:37:00,
2013-05-08 16:43:00,67.9,58.2,30.06,WNW,287,0.0,0.0,71,0.00,,BKN200,0.01,VWS V14.01,2013-05-08 20:43:00,
2013-05-08 16:50:00,67.9,58.2,30.06,WNW,287,0.0,0.0,71,0.00,,BKN200,0.01,VWS V14.01,2013-05-08 20:50:00,
2013-05-08 16:56:00,68.3,57.8,30.06,WNW,287,0.0,0.0,69,0.00,,BKN200,0.01,VWS V14.01,2013-05-08 20:56:00,
2013-05-08 17:02:00,68.3,57.8,30.05,WNW,287,0.0,0.0,69,0.00,,BKN200,0.01,VWS V14.01,2013-05-08 21:02:00,
2013-05-08 17:08:00,68.3,58.5,30.05,WNW,287,0.0,0.0,71,0.00,,BKN200,0.01,VWS V14.01,2013-05-08 21:08:00,
2013-05-08 17:14:00,68.3,57.8,30.05,WNW,287,0.0,0.0,69,0.00,,BKN200,0.01,VWS V14.01,2013-05-08 21:14:00,
2013-05-08 17:20:00,68.3,58.2,30.05,WNW,287,0.0,0.0,70,0.00,,BKN200,0.01,VWS V14.01,2013-05-08 21:20:00,
2013-05-08 17:26:00,68.3,58.2,30.05,WNW,287,0.0,1.0,70,0.00,,BKN200,0.01,VWS V14.01,2013-05-08 21:26:00,
2013-05-08 17:32:00,67.9,56.5,30.05,WNW,287,0.0,0.0,67,0.00,,BKN200,0.01,VWS V14.01,2013-05-08 21:32:00,
2013-05-08 17:38:00,67.9,57.4,30.05,WNW,287,0.0,0.0,69,0.00,,BKN200,0.01,VWS V14.01,2013-05-08 21:38:00,
2013-05-08 17:44:00,67.9,57.8,30.05,WNW,287,0.0,0.0,70,0.00,,BKN200,0.01,VWS V14.01,2013-05-08 21:44:00,
2013-05-08 17:50:00,67.9,58.5,30.05,WNW,287,0.0,0.0,72,0.00,,BKN200,0.01,VWS V14.01,2013-05-08 21:50:00,
2013-05-08 17:56:00,68.3,58.5,30.05,WNW,287,0.0,0.0,71,0.00,,BKN200,0.01,VWS V14.01,2013-05-08 21:56:00,
2013-05-08 18:02:00,68.3,58.5,30.05,WNW,287,0.0,0.0,71,0.00,,BKN200,0.01,VWS V14.01,2013-05-08 22:02:00,
2013-05-08 18:08:00,68.3,58.2,30.05,WNW,287,0.0,0.0,70,0.00,,BKN200,0.01,VWS V14.01,2013-05-08 22:08:00,
2013-05-08 18:15:00,68.1,58.3,30.05,WNW,287,0.0,0.0,71,0.00,,BKN200,0.01,VWS V14.01,2013-05-08 22:15:00,
2013-05-08 18:20:00,68.1,59.1,30.05,WNW,287,0.0,0.0,73,0.00,,BKN200,0.01,VWS V14.01,2013-05-08 22:20:00,
2013-05-08 18:27:00,68.1,59.1,30.05,WNW,287,0.0,0.0,73,0.00,,BKN200,0.01,VWS V14.01,2013-05-08 22:27:00,
2013-05-08 18:33:00,68.1,58.3,30.05,WNW,287,0.0,0.0,71,0.00,,BKN200,0.01,VWS V14.01,2013-05-08 22:33:00,
2013-05-08 18:39:00,68.1,59.1,30.05,WNW,287,0.0,0.0,73,0.00,,BKN200,0.01,VWS V14.01,2013-05-08 22:39:00,
2013-05-08 18:45:00,68.1,58.7,30.05,WNW,287,0.0,0.0,72,0.00,,BKN200,0.01,VWS V14.01,2013-05-08 22:45:00,
2013-05-08 18:50:00,67.8,59.2,30.05,WNW,287,0.0,0.0,74,0.00,,BKN200,0.01,VWS V14.01,2013-05-08 22:50:00,
2013-05-08 18:55:00,67.6,59.4,30.05,WNW,287,0.0,0.0,75,0.00,,BKN200,0.01,VWS V14.01,2013-05-08 22:55:00,
2013-05-08 19:02:00,67.3,59.1,30.05,WNW,287,0.0,0.0,75,0.00,,BKN200,0.01,VWS V14.01,2013-05-08 23:02:00,
2013-05-08 19:08:00,67.1,59.3,30.05,WNW,287,0.0,0.0,76,0.00,,BKN200,0.01,VWS V14.01,2013-05-08 23:08:00,
2013-05-08 19:14:00,66.9,58.7,30.05,WNW,287,0.0,0.0,75,0.00,,BKN200,0.01,VWS V14.01,2013-05-08 23:14:00,
2013-05-08 19:20:00,66.8,59.4,30.05,WNW,287,0.0,0.0,77,0.00,,BKN200,0.01,VWS V14.01,2013-05-08 23:20:00,
2013-05-08 19:26:00,66.6,59.5,30.05,WNW,287,0.0,0.0,78,0.00,,BKN200,0.01,VWS V14.01,2013-05-08 23:26:00,
2013-05-08 19:32:00,66.3,59.2,30.05,WNW,287,0.0,0.0,78,0.00,,BKN200,0.01,VWS V14.01,2013-05-08 23:32:00,
2013-05-08 19:38:00,66.0,59.3,30.05,WNW,287,0.0,0.0,79,0.00,,BKN200,0.01,VWS V14.01,2013-05-08 23:38:00,
2013-05-08 19:44:00,65.5,59.5,30.05,WNW,287,0.0,0.0,81,0.00,,BKN200,0.01,VWS V14.01,2013-05-08 23:44:00,
2013-05-08 19:50:00,65.3,59.3,30.05,WNW,287,0.0,0.0,81,0.00,,BKN200,0.01,VWS V14.01,2013-05-08 23:50:00,
2013-05-08 19:56:00,65.2,59.2,30.05,WNW,287,0.0,0.0,81,0.00,,BKN200,0.01,VWS V14.01,2013-05-08 23:56:00,
2013-05-08 20:02:00,65.0,59.4,30.06,WNW,287,0.0,0.0,82,0.00,,BKN200,0.01,VWS V14.01,2013-05-09 00:02:00,
2013-05-08 20:08:00,64.8,59.5,30.06,WNW,287,0.0,0.0,83,0.00,,BKN200,0.01,VWS V14.01,2013-05-09 00:08:00,
2013-05-08 20:14:00,64.5,59.6,30.07,WNW,287,0.0,0.0,84,0.00,,BKN200,0.01,VWS V14.01,2013-05-09 00:14:00,
2013-05-08 20:20:00,64.2,59.6,30.07,WNW,287,0.0,0.0,85,0.00,,BKN200,0.01,VWS V14.01,2013-05-09 00:20:00,
2013-05-08 20:26:00,64.0,59.7,30.07,WNW,287,0.0,0.0,86,0.00,,BKN200,0.01,VWS V14.01,2013-05-09 00:26:00,
2013-05-08 20:33:00,63.7,59.8,30.07,WNW,287,0.0,0.0,87,0.00,,BKN200,0.01,VWS V14.01,2013-05-09 00:33:00,
2013-05-08 20:39:00,63.5,60.2,30.07,WNW,287,0.0,0.0,89,0.00,,BKN200,0.01,VWS V14.01,2013-05-09 00:39:00,
2013-05-08 20:45:00,63.1,60.1,30.08,WNW,287,0.0,0.0,90,0.00,,BKN200,0.01,VWS V14.01,2013-05-09 00:45:00,
2013-05-08 20:50:00,62.7,60.0,30.08,WNW,287,0.0,0.0,91,0.00,,BKN200,0.01,VWS V14.01,2013-05-09 00:50:00,
2013-05-08 20:55:00,62.6,60.2,30.08,West,276,0.0,0.0,92,0.00,,BKN200,0.01,VWS V14.01,2013-05-09 00:55:00,
2013-05-08 21:01:00,62.4,60.3,30.09,West,276,0.0,0.0,93,0.00,,,0.01,VWS V14.01,2013-05-09 01:01:00,
2013-05-08 21:08:00,62.3,60.6,30.09,West,276,0.0,0.0,94,0.00,,,0.01,VWS V14.01,2013-05-09 01:08:00,
2013-05-08 21:14:00,62.1,60.4,30.09,West,276,0.0,0.0,94,0.00,,,0.01,VWS V14.01,2013-05-09 01:14:00,
2013-05-08 21:20:00,62.0,60.6,30.10,West,276,0.0,0.0,95,0.00,,,0.01,VWS V14.01,2013-05-09 01:20:00,
2013-05-08 21:26:00,62.0,60.6,30.10,West,276,0.0,0.0,95,0.00,,,0.01,VWS V14.01,2013-05-09 01:26:00,
2013-05-08 21:32:00,61.8,60.7,30.10,West,276,0.0,0.0,96,0.00,,,0.01,VWS V14.01,2013-05-09 01:32:00,
2013-05-08 21:38:00,61.6,60.5,30.10,West,276,0.0,0.0,96,0.00,,,0.01,VWS V14.01,2013-05-09 01:38:00,
2013-05-08 21:44:00,61.5,60.6,30.10,West,276,0.0,0.0,97,0.00,,,0.01,VWS V14.01,2013-05-09 01:44:00,
2013-05-08 21:50:00,61.3,60.4,30.10,West,276,0.0,0.0,97,0.00,,,0.01,VWS V14.01,2013-05-09 01:50:00,
2013-05-08 21:56:00,61.2,60.3,30.10,West,276,0.0,0.0,97,0.00,,,0.01,VWS V14.01,2013-05-09 01:56:00,
2013-05-08 22:02:00,61.0,60.2,30.11,West,276,0.0,0.0,97,0.00,,BKN090,0.01,VWS V14.01,2013-05-09 02:02:00,
2013-05-08 22:08:00,60.9,60.0,30.11,West,276,0.0,0.0,97,0.00,,BKN090,0.01,VWS V14.01,2013-05-09 02:08:00,
2013-05-08 22:14:00,60.7,59.8,30.11,West,276,0.0,0.0,97,0.00,,BKN090,0.01,VWS V14.01,2013-05-09 02:14:00,
2013-05-08 22:20:00,60.5,59.7,30.11,West,276,0.0,0.0,97,0.00,,BKN090,0.01,VWS V14.01,2013-05-09 02:20:00,
2013-05-08 22:26:00,60.4,59.5,30.11,West,276,0.0,0.0,97,0.00,,BKN090,0.01,VWS V14.01,2013-05-09 02:26:00,
2013-05-08 22:33:00,60.2,59.6,30.12,West,276,0.0,0.0,98,0.00,,BKN090,0.01,VWS V14.01,2013-05-09 02:33:00,
2013-05-08 22:39:00,60.1,59.5,30.12,West,276,0.0,0.0,98,0.00,,BKN090,0.01,VWS V14.01,2013-05-09 02:39:00,
2013-05-08 22:45:00,60.1,59.5,30.12,West,276,0.0,0.0,98,0.00,,BKN090,0.01,VWS V14.01,2013-05-09 02:45:00,
2013-05-08 22:50:00,60.1,59.5,30.12,West,276,0.0,0.0,98,0.00,,BKN090,0.01,VWS V14.01,2013-05-09 02:50:00,
2013-05-08 22:55:00,60.1,59.5,30.12,West,276,0.0,0.0,98,0.00,,BKN090,0.01,VWS V14.01,2013-05-09 02:55:00,
2013-05-08 23:01:00,59.9,59.3,30.12,West,276,0.0,0.0,98,0.00,,SCT050,0.01,VWS V14.01,2013-05-09 03:01:00,
2013-05-08 23:07:00,59.9,59.3,30.12,West,276,0.0,0.0,98,0.00,,SCT050,0.01,VWS V14.01,2013-05-09 03:07:00,
2013-05-08 23:14:00,59.9,59.3,30.12,West,276,0.0,0.0,98,0.00,,SCT050,0.01,VWS V14.01,2013-05-09 03:14:00,
2013-05-08 23:20:00,59.9,59.6,30.12,West,276,0.0,0.0,99,0.00,,SCT050,0.01,VWS V14.01,2013-05-09 03:20:00,
2013-05-08 23:26:00,59.8,59.5,30.12,West,276,0.0,0.0,99,0.00,,SCT050,0.01,VWS V14.01,2013-05-09 03:26:00,
2013-05-08 23:32:00,59.6,59.0,30.11,West,276,0.0,0.0,98,0.00,,SCT050,0.01,VWS V14.01,2013-05-09 03:32:00,
2013-05-08 23:38:00,59.5,59.2,30.11,West,276,0.0,0.0,99,0.00,,SCT050,0.01,VWS V14.01,2013-05-09 03:38:00,
2013-05-08 23:44:00,59.3,59.0,30.11,West,276,0.0,0.0,99,0.00,,SCT050,0.01,VWS V14.01,2013-05-09 03:44:00,
2013-05-08 23:50:00,59.2,58.9,30.11,West,276,0.0,0.0,99,0.00,,SCT050,0.01,VWS V14.01,2013-05-09 03:50:00,
2013-05-08 23:56:00,58.9,58.6,30.11,West,276,0.0,0.0,99,0.00,,SCT050,0.01,VWS V14.01,2013-05-09 03:56:00,